Aztec, NM (87410)

7:02 PM MDT on April 24, 2015 (GMT -0600)
Aztec, NM 87410 | | Change Station
CLOSE
Current Station
Personal Weather Station
Location: Aztec, NM
Elevation: 5682 ft
Nearby Weather Stations

Elev 5682 ft 36.82 °N, 107.99 °W | Updated 3 minutes ago

Overcast
Overcast
51.2 °F
Feels Like 51.2 °F
N
13.0
Wind Variable Wind from NNE

Today
High -- | Low -- °F
--% Chance of Precip.
Yesterday
High -- | Low -- °F
Precip. -- in
6:26 AM 7:54 PM
Waxing Crescent, 41% visible
Pressure 29.75 in
Visibility 10.0 miles
Clouds Mostly Cloudy 9000 ft
Dew Point 28 °F
Humidity 40%
Rainfall 0.00 in
Snow Depth Not available.
UV 0 out of 12
Pollen 9.20 out of 12
Air Quality Not available.
Flu Activity Local Activity
METAR KFMN 250053Z 09003KT 10SM BKN090 13/01 A2982 RMK AO2 LTG DSNT SE AND S RAB01E17 SLP073 P0000 T01330011

More Conditions Fewer Conditions

Pressure 29.75 in
Visibility 10.0 miles
Clouds Mostly Cloudy 9000 ft
Dew Point 28 °F
Humidity 40%
Rainfall 0.00 in
Snow Depth Not available.
UV 0 out of 12
Pollen 9.20 out of 12
Air Quality Not available.
Flu Activity Local Activity
METAR KFMN 250053Z 09003KT 10SM BKN090 13/01 A2982 RMK AO2 LTG DSNT SE AND S RAB01E17 SLP073 P0000 T01330011

More Conditions Fewer Conditions

Nowcast | as of 5:53 PM MDT on April 24, 2015

Through 730 PM...shower and thunderstorm coverage will continue to diminish over central and western New Mexico. Remaining activity will be capable of brief moderate rain with amounts generally less than one tenth of an inch. A few cloud to ground lightning strikes and gusty winds to 35 mph are also possible with the stronger storms. Favored areas include the Estancia valley and Central Highlands as well as areas from Navajo Dam to Lindrith and El Rito.

×

10-Day Weather Forecast

Almanac

Astronomy

Apr. 24, 2015 Rise Set
Actual Time
Civil Twilight
Nautical Twilight
Astronomical Twilight
Moon
Length of Visible Light
Length of Day
Tomorrow will be .
, % of the Moon is Illuminated

Today's Extremes

State Highs State Lows

Community

WunderPhotos

Upload Photos

1,816,541 photos uploaded!

WunderBlogs® & News

Nearby

Air Quality

  Air Quality AQ Index Pollutant
Not available.

Snow Depth

Station Depth Elevation

Earthquake Activity

City Distance Mag. Time & Date
Minimum magnitude displayed is 2.5.

Coastal Water Temperatures

Place Temperature

Stations

Nearby Weather Stations

Station Location Temp. Windchill Dew Point Humidity Wind Precip. Elev Updated Type